This is the latest recevied weather packets stored in our database for station/object KG2M-1. If no packets are shown the sender has not sent any weather packets the latest 10 day(s).
| Time | Temp. | Humidity | Pressure | Rain* | Wind** | Luminosity | Snow |
|---|---|---|---|---|---|---|---|
| 1788058921 | 62° F | 100% | 760.4 mmHg | 0 in | - | - | - |
| 1788004918 | 53° F | 100% | 763.3 mmHg | 0 in | - | - | - |
| 1788001318 | 51° F | 100% | 763 mmHg | 0 in | - | - | - |
| 1787994118 | 49° F | 100% | 762.2 mmHg | 0 in | - | - | - |
| 1787990518 | 49° F | 100% | 762.1 mmHg | 0 in | - | - | - |
| 1787986918 | 49° F | 100% | 761.8 mmHg | 0 in | - | - | - |
| 1787983318 | 50° F | 100% | 761.8 mmHg | 0 in | - | - | - |
| 1787979717 | 50° F | 100% | 762 mmHg | 0 in | - | - | - |
| 1787882514 | 66° F | 100% | 755.5 mmHg | 0 in | - | - | - |
| 1787817712 | 62° F | 100% | 755.8 mmHg | 0 in | - | - | - |
| 1787814112 | 62° F | 100% | 756.1 mmHg | 0 in | - | - | - |
| 1787803311 | 62° F | 100% | 757 mmHg | 0 in | - | - | - |
| 1787749310 | 62° F | 100% | 759.7 mmHg | 0 in | - | - | - |
| 1787745710 | 59° F | 100% | 759.7 mmHg | 0 in | - | - | - |
| 1787738705 | 58° F | 100% | 759 mmHg | 0 in | - | - | - |
| 1787738510 | 58° F | 100% | 759 mmHg | 0 in | - | - | - |
| 1787734950 | 58° F | 100% | 759 mmHg | 0 in | - | - | - |
| 1787734910 | 58° F | 100% | 759 mmHg | 0 in | - | - | - |
| 1787724110 | 58° F | 100% | 759.1 mmHg | 0 in | - | - | - |
| 1787720510 | 58° F | 100% | 759 mmHg | 0.01 in | - | - | - |
| 1787608907 | 63° F | 100% | 754.6 mmHg | 0.05 in | - | - | - |
| 1787601707 | 68° F | 100% | 753.9 mmHg | 0 in | - | - | - |
| 1787598107 | 68° F | 100% | 754 mmHg | 0 in | - | - | - |
| 1787594507 | 68° F | 100% | 754.1 mmHg | 0 in | - | - | - |
| 1787572906 | 56° F | 100% | 753.8 mmHg | 0 in | - | - | - |
* Rain latest hour (hover to see other rain measurements)
** Current wind speed in m/s (hover to see current wind gust speed)